Latest Weather Observations for Merriwa

IDN60801

Issued at 9:02 pm EST Wednesday 29 July 2015 (issued every 30 minutes, with the page automatically refreshed every 10 minutes)

About weather observations | Map of weather stations | Latest weather observations for NSW | Other Formats
Station Details ID: 061287 Name: MERRIWA (ROSCOMMON) Lat: -32.19 Lon: 150.17 Height: 375.0 m
Data from the previous 72 hours. | See also: Recent months at Merriwa
Date/Time
EST
Temp
°C
App
Temp
°C
Dew
Point
Rel
Hum
%
Delta-T
°C
Wind Press
QNH
hPa
Press
MSL
hPa
Rain
since 9 am
mm
Dir
 
Spd
km/h
Gust
km/h
Spd
kts
Gust
kts
29/09:00pm 5.2 2.5 3.7 90 0.6 NNE 7 7 4 4 1030.7 1031.5 0.0
29/08:30pm 6.7 4.2 4.7 87 0.9 NNE 7 9 4 5 1030.2 1030.9 0.0
29/08:00pm 5.9 3.3 4.2 89 0.7 NNE 7 9 4 5 1030.5 1031.2 0.0
29/07:30pm 5.7 2.6 3.7 87 0.9 NE 9 9 5 5 1030.6 1031.4 0.0
29/07:00pm 6.3 3.8 4.5 88 0.8 ENE 7 9 4 5 1030.3 1031.0 0.0
29/06:30pm 6.5 4.8 4.2 85 1.0 SE 2 7 1 4 1030.3 1031.0 0.0
29/06:00pm 7.7 5.5 3.2 73 1.9 SE 4 7 2 4 1030.3 1031.0 0.0
29/05:30pm 10.2 7.8 5.2 71 2.3 SE 7 9 4 5 1029.8 1030.5 0.0
29/05:00pm 12.2 10.0 6.0 66 3.0 SE 7 9 4 5 1029.5 1030.2 0.0
29/04:30pm 13.3 10.7 5.9 61 3.6 ESE 9 11 5 6 1029.1 1029.8 0.0
29/04:00pm 14.4 12.1 5.5 55 4.3 E 7 11 4 6 1029.4 1030.1 0.0
29/03:30pm 14.9 13.2 5.7 54 4.5 ESE 4 11 2 6 1029.8 1030.5 0.0
29/03:00pm 14.6 11.9 5.7 55 4.3 ESE 9 11 5 6 1030.0 1030.7 0.0
29/02:30pm 14.7 12.1 6.3 57 4.1 SE 9 13 5 7 1030.4 1031.1 0.0
29/02:00pm 14.4 11.7 5.5 55 4.3 E 9 15 5 8 1030.6 1031.4 0.0
29/01:30pm 14.3 11.4 6.4 59 3.9 ESE 11 20 6 11 1030.9 1031.7 0.0
29/01:00pm 13.8 10.5 6.2 60 3.7 E 13 20 7 11 1031.5 1032.2 0.0
29/12:30pm 13.0 8.8 5.9 62 3.4 ESE 17 20 9 11 1032.2 1032.9 0.0
29/12:00pm 12.4 8.5 5.3 62 3.3 ESE 15 20 8 11 1032.9 1033.7 0.0
29/11:30am 11.7 8.1 4.9 63 3.1 ESE 13 26 7 14 1033.5 1034.3 0.0
29/11:00am 10.0 6.2 4.0 66 2.7 E 13 15 7 8 1034.0 1034.8 0.0
29/10:30am 8.6 5.9 3.6 71 2.2 E 7 11 4 6 1034.6 1035.3 0.0
29/10:00am 7.4 4.8 3.1 74 1.8 SE 6 9 3 5 1035.0 1035.7 0.0
29/09:30am 5.2 2.4 2.2 81 1.2 S 6 7 3 4 1035.1 1035.9 0.0
29/09:00am 3.5 0.7 2.2 91 0.5 WSW 6 7 3 4 1035.0 1035.7 0.0
29/08:30am 1.7 -0.1 1.3 97 0.2 CALM 0 0 0 0 1034.9 1035.6 0.0
29/08:00am 0.3 -1.7 0.2 99 0.0 CALM 0 0 0 0 1034.8 1035.5 0.0
29/07:30am -2.2 -4.5 -2.5 98 0.0 CALM 0 0 0 0 1034.7 1035.4 0.0
29/07:00am -3.4 -7.0 -3.7 98 0.0 WSW 6 7 3 4 1034.3 1035.0 0.0
29/06:30am -3.4 -6.6 -3.7 98 0.0 WSW 4 6 2 3 1033.7 1034.5 0.0
29/06:00am -4.1 -7.8 -4.6 96 0.0 WSW 6 6 3 3 1033.5 1034.3 0.0
29/05:30am -3.2 -6.8 -3.5 98 0.0 SW 6 7 3 4 1033.3 1034.1 0.0
29/05:00am -2.6 -6.3 -2.9 98 0.0 SW 7 9 4 5 1033.1 1033.9 0.0
29/04:30am -3.0 -6.8 -3.4 97 0.0 WSW 7 9 4 5 1033.0 1033.8 0.0
29/04:00am -2.2 -4.5 -2.5 98 0.0 CALM 0 0 0 0 1032.8 1033.5 0.0
29/03:30am -2.1 -4.4 -2.4 98 0.0 CALM 0 0 0 0 1032.9 1033.7 0.0
29/03:00am -2.8 -5.3 -3.6 94 0.1 CALM 0 0 0 0 1033.2 1034.0 0.0
29/02:30am -1.6 -3.9 -2.2 96 0.1 CALM 0 0 0 0 1033.3 1034.1 0.0
29/02:00am -1.0 -3.2 -1.4 97 0.1 CALM 0 0 0 0 1033.2 1034.0 0.0
29/01:30am -1.4 -4.4 -2.1 95 0.2 NW 4 6 2 3 1033.1 1033.9 0.0
29/01:00am 0.0 -4.2 -0.8 94 0.3 WNW 11 13 6 7 1033.1 1033.9 0.0
29/12:30am -0.6 -2.8 -1.2 96 0.2 CALM 0 0 0 0 1032.9 1033.7 0.0
29/12:00am -1.2 -4.6 -2.2 93 0.3 W 6 9 3 5 1033.0 1033.8 0.0
 
Date/Time
EST
Temp
°C
App
Temp
°C
Dew
Point
Rel
Hum
%
Delta-T
°C
Wind Press
QNH
hPa
Press
MSL
hPa
Rain
since 9 am
mm
Dir
 
Spd
km/h
Gust
km/h
Spd
kts
Gust
kts
28/11:30pm -0.8 -3.0 -1.8 93 0.3 CALM 0 0 0 0 1033.2 1034.0 0.0
28/11:00pm 0.1 -2.0 -0.9 93 0.4 CALM 0 0 0 0 1033.1 1033.9 0.0
28/10:30pm 0.5 -2.7 -0.8 91 0.5 SW 6 6 3 3 1032.9 1033.7 0.0
28/10:00pm 1.1 -1.3 -0.5 89 0.6 SW 2 9 1 5 1032.9 1033.7 0.0
28/09:30pm 1.0 -1.5 -1.1 86 0.8 WSW 2 6 1 3 1033.1 1033.9 0.0
28/09:00pm 0.8 -2.8 -1.9 82 1.0 NE 7 9 4 5 1033.0 1033.8 0.0
28/08:30pm 2.7 -0.6 -0.9 77 1.3 NNE 6 7 3 4 1032.9 1033.7 0.0
28/08:00pm 2.7 -0.8 -1.1 76 1.4 W 7 9 4 5 1032.8 1033.5 0.0
28/07:30pm 3.4 0.1 -1.5 70 1.8 NNE 6 7 3 4 1032.5 1033.2 0.0
28/07:00pm 4.6 1.1 -1.4 65 2.2 NNE 7 9 4 5 1032.3 1033.0 0.0
28/06:30pm 4.8 1.4 -0.8 67 2.1 N 7 9 4 5 1032.0 1032.7 0.0
28/06:00pm 6.1 2.7 -0.6 62 2.6 N 7 9 4 5 1031.7 1032.4 0.0
28/05:30pm 7.6 4.4 0.8 62 2.8 N 7 7 4 4 1031.6 1032.3 0.0
28/05:00pm 10.1 6.9 0.7 52 3.9 NNE 7 9 4 5 1031.2 1032.0 0.0
28/04:30pm 12.3 9.0 0.1 43 5.1 NNE 7 9 4 5 1031.0 1031.8 0.0
28/04:00pm 13.1 9.8 -1.6 36 6.0 NNE 6 9 3 5 1031.1 1031.9 0.0
28/03:30pm 13.1 9.6 -1.6 36 6.0 N 7 13 4 7 1030.9 1031.7 0.0
28/03:00pm 13.6 10.2 -0.8 37 6.0 NNE 7 11 4 6 1030.8 1031.6 0.0
28/02:30pm 13.6 10.2 -0.8 37 6.0 N 7 11 4 6 1031.1 1031.9 0.0
28/02:00pm 12.7 9.1 -2.0 36 5.9 SSW 7 13 4 7 1031.2 1032.0 0.0
28/01:30pm 12.3 8.9 -0.9 40 5.4 W 7 13 4 7 1031.7 1032.4 0.0
28/01:00pm 12.2 8.5 0.0 43 5.1 NW 9 15 5 8 1032.2 1032.9 0.0
28/12:30pm 12.0 8.3 0.1 44 5.0 NW 9 13 5 7 1032.5 1033.2 0.0
28/12:00pm 11.4 7.9 1.1 49 4.4 W 9 13 5 7 1033.0 1033.8 0.0
28/11:30am 10.1 6.4 0.2 50 4.1 WSW 9 13 5 7 1033.3 1034.1 0.0
28/11:00am 9.8 6.3 1.2 55 3.6 W 9 15 5 8 1033.7 1034.5 0.0
28/10:30am 9.2 5.6 0.9 56 3.5 W 9 15 5 8 1033.9 1034.7 0.0
28/10:00am 8.5 4.3 1.4 61 2.9 WNW 13 20 7 11 1033.9 1034.7 0.0
28/09:30am 7.9 3.3 1.7 65 2.6 NW 15 19 8 10 1033.8 1034.6 0.0
28/09:00am 6.5 1.5 1.6 71 2.0 NW 17 22 9 12 1033.7 1034.5 0.0
28/08:30am 5.3 0.3 1.4 76 1.6 NW 17 22 9 12 1033.5 1034.3 0.0
28/08:00am 3.8 -0.9 0.8 81 1.2 NW 15 20 8 11 1033.4 1034.2 0.0
28/07:30am 2.2 -2.3 -0.1 85 0.9 NW 13 17 7 9 1033.3 1034.1 0.0
28/07:00am 1.4 -3.2 -0.7 86 0.8 WNW 13 17 7 9 1033.0 1033.8 0.0
28/06:30am 1.4 -3.5 -0.5 87 0.7 NW 15 17 8 9 1032.5 1033.2 0.0
28/06:00am 1.5 -3.0 -0.4 87 0.7 NW 13 17 7 9 1032.3 1033.0 0.0
28/05:30am 1.1 -3.8 -0.7 88 0.7 NW 15 19 8 10 1031.9 1032.6 0.0
28/05:00am 1.5 -3.4 -0.4 87 0.7 NW 15 19 8 10 1031.7 1032.4 0.0
28/04:30am 1.6 -3.3 -0.2 88 0.7 NW 15 19 8 10 1031.5 1032.2 0.0
28/04:00am 1.3 -3.6 -0.3 89 0.6 NW 15 19 8 10 1031.2 1032.0 0.0
28/03:30am 0.9 -3.6 -0.5 90 0.5 NW 13 15 7 8 1031.1 1031.9 0.0
28/03:00am 1.3 -3.2 -0.6 87 0.7 WNW 13 17 7 9 1031.1 1031.9 0.0
28/02:30am 1.8 -3.1 -0.3 86 0.8 WNW 15 19 8 10 1030.9 1031.7 0.0
28/02:00am 1.9 -3.3 -0.2 86 0.8 WNW 17 20 9 11 1031.1 1031.9 0.0
28/01:30am 2.2 -2.6 -0.1 85 0.9 WNW 15 20 8 11 1031.0 1031.8 0.0
28/01:00am 2.3 -2.9 0.0 85 0.9 WNW 17 20 9 11 1031.1 1031.9 0.0
28/12:30am 1.6 -2.6 -0.8 84 0.9 NW 11 13 6 7 1031.2 1032.0 0.0
28/12:00am 2.8 -2.0 0.0 82 1.1 WNW 15 20 8 11 1031.1 1031.9 0.0
 
Date/Time
EST
Temp
°C
App
Temp
°C
Dew
Point
Rel
Hum
%
Delta-T
°C
Wind Press
QNH
hPa
Press
MSL
hPa
Rain
since 9 am
mm
Dir
 
Spd
km/h
Gust
km/h
Spd
kts
Gust
kts
27/11:30pm 2.0 -2.5 -0.4 84 0.9 NW 13 17 7 9 1031.2 1032.0 0.0
27/11:00pm 2.7 -2.5 0.3 84 0.9 WNW 17 20 9 11 1031.0 1031.8 0.0
27/10:30pm 2.4 -2.4 0.0 84 0.9 NW 15 20 8 11 1030.8 1031.6 0.0
27/10:00pm 2.1 -2.0 -0.3 84 0.9 NNW 11 13 6 7 1031.0 1031.8 0.0
27/09:30pm 2.2 -1.9 -0.2 84 0.9 NNW 11 15 6 8 1031.0 1031.8 0.0
27/09:00pm 2.6 -1.5 -0.2 82 1.0 NW 11 13 6 7 1030.8 1031.6 0.0
27/08:30pm 3.7 -0.7 0.1 77 1.4 W 13 19 7 10 1030.5 1031.2 0.0
27/08:00pm 3.8 -1.0 0.1 77 1.4 WNW 15 17 8 9 1030.1 1030.8 0.0
27/07:30pm 4.0 -0.5 0.0 75 1.5 WNW 13 17 7 9 1030.0 1030.7 0.0
27/07:00pm 5.5 1.1 0.1 68 2.1 W 13 19 7 10 1029.5 1030.2 0.0
27/06:30pm 6.1 1.3 0.2 66 2.3 W 15 22 8 12 1029.0 1029.7 0.0
27/06:00pm 6.9 1.7 -0.1 61 2.8 W 17 26 9 14 1028.6 1029.3 0.0
27/05:30pm 7.5 1.9 -0.2 58 3.1 W 19 26 10 14 1028.1 1028.8 0.0
27/05:00pm 8.6 2.7 -0.7 52 3.7 W 20 30 11 16 1027.8 1028.5 0.0
27/04:30pm 9.8 4.1 -0.7 48 4.2 W 19 30 10 16 1027.4 1028.1 0.0
27/04:00pm 10.3 4.4 -1.1 45 4.6 WSW 20 32 11 17 1027.1 1027.8 0.0
27/03:30pm 10.7 4.8 -0.7 45 4.6 W 20 35 11 19 1026.9 1027.6 0.0
27/03:00pm 10.7 4.5 -0.4 46 4.5 WSW 22 33 12 18 1026.8 1027.5 0.0
27/02:30pm 10.6 3.9 -1.4 43 4.8 W 24 37 13 20 1026.8 1027.5 0.0
27/02:00pm 10.9 4.7 -0.5 45 4.6 W 22 33 12 18 1027.0 1027.7 0.0
27/01:30pm 10.7 3.6 -1.0 44 4.7 W 26 39 14 21 1027.1 1027.8 0.0
27/01:00pm 10.6 3.1 -1.1 44 4.7 W 28 41 15 22 1027.3 1028.0 0.0
27/12:30pm 10.4 3.3 -1.6 43 4.8 WSW 26 39 14 21 1027.6 1028.3 0.0
27/12:00pm 10.4 4.3 0.4 50 4.1 WSW 22 32 12 17 1027.8 1028.5 0.0
27/11:30am 9.9 4.1 0.0 50 4.1 W 20 30 11 16 1028.1 1028.8 0.0
27/11:00am 9.8 4.5 1.7 57 3.4 W 19 26 10 14 1028.4 1029.2 0.0
27/10:30am 9.4 4.2 2.3 61 3.1 W 19 28 10 15 1028.6 1029.3 0.0
27/10:00am 7.9 2.5 1.5 64 2.6 W 19 30 10 16 1028.4 1029.2 0.0
27/09:30am 7.4 2.5 2.1 69 2.2 W 17 24 9 13 1028.3 1029.1 0.0
27/09:00am 6.3 1.1 2.4 76 1.6 WNW 19 26 10 14 1028.1 1028.8 0.0
27/08:30am 5.5 0.0 2.0 78 1.4 WNW 20 30 11 16 1027.8 1028.5 0.0
27/08:00am 4.6 -0.7 2.0 83 1.1 NW 19 26 10 14 1027.5 1028.2 0.0
27/07:30am 3.5 -1.1 1.7 88 0.7 NW 15 20 8 11 1027.0 1027.7 0.0
27/07:00am 3.0 -1.2 1.4 89 0.6 WNW 13 19 7 10 1026.7 1027.4 0.0
27/06:30am 3.1 -1.5 1.6 90 0.6 NW 15 19 8 10 1026.4 1027.1 0.0
27/06:00am 2.8 -1.9 1.2 89 0.6 NW 15 19 8 10 1026.0 1026.6 0.0
27/05:30am 3.4 -1.6 1.4 87 0.8 NW 17 20 9 11 1025.6 1026.3 0.0
27/05:00am 3.9 -1.0 1.8 86 0.8 NW 17 22 9 12 1025.3 1026.0 0.0
27/04:30am 4.0 -0.5 1.9 86 0.8 WNW 15 19 8 10 1025.0 1025.7 0.0
27/04:00am 4.2 -0.3 1.9 85 0.9 NW 15 20 8 11 1024.9 1025.6 0.0
27/03:30am 4.4 -0.9 1.9 84 1.0 NW 19 24 10 13 1024.5 1025.2 0.0
27/03:00am 4.6 0.4 1.8 82 1.1 WNW 13 19 7 10 1024.5 1025.2 0.0
27/02:30am 4.7 0.1 1.7 81 1.2 WNW 15 17 8 9 1024.2 1024.9 0.0
27/02:00am 5.1 -0.2 1.9 80 1.3 WNW 19 24 10 13 1023.9 1024.6 0.0
27/01:30am 5.6 0.7 2.1 78 1.4 WNW 17 20 9 11 1023.9 1024.6 0.0
27/01:00am 5.9 1.0 2.0 76 1.6 WNW 17 20 9 11 1024.1 1024.8 0.0
27/12:30am 6.2 1.8 2.5 77 1.6 WNW 15 19 8 10 1024.0 1024.7 0.0
27/12:00am 6.6 1.9 3.2 79 1.5 WNW 17 24 9 13 1023.5 1024.1 0.0
 
Date/Time
EST
Temp
°C
App
Temp
°C
Dew
Point
Rel
Hum
%
Delta-T
°C
Wind Press
QNH
hPa
Press
MSL
hPa
Rain
since 9 am
mm
Dir
 
Spd
km/h
Gust
km/h
Spd
kts
Gust
kts
26/11:30pm 7.6 3.4 3.8 77 1.7 W 15 22 8 12 1023.5 1024.1 0.0
26/11:00pm 8.3 3.7 3.9 74 1.9 W 17 28 9 15 1023.4 1024.0 0.0
26/10:30pm 9.2 4.4 5.8 79 1.6 WSW 20 30 11 16 1023.5 1024.1 0.0
26/10:00pm 9.7 4.3 6.2 79 1.6 WSW 24 35 13 19 1023.2 1023.8 0.0
26/09:30pm 10.0 5.5 6.2 77 1.8 W 19 30 10 16 1022.8 1023.5 0.0

Other Formats:

Comma delimited format used in spreadsheet applications
http://www.bom.gov.au/fwo/IDN60801/IDN60801.95754.axf

JavaScript Object Notation format (JSON) in row-major order
http://www.bom.gov.au/fwo/IDN60801/IDN60801.95754.json